Bay Bridge — 3FCS5 — position and weather

sailwx.info

Track history (hours):
 
Tides and Currents Weather Stations Pressure Air Temp Water Temp Dewpoint Dewpoint Depression Visibility Wind Speed Wind Dir Waves Ship Positions

Bay Bridge

Last reported at 2015-Jul-04 00:10 UTC. Time now 2015-Jul-06 00:59 UTC.
Position N 31°08' E 122°45'.

Length 267 m; draft 9.5 m.

Type: Ship (hazmat cat A). MMSI: 354120000.

Date/timePositionNaut miles runAvg speedWind from/ knotsBaromVisibWave heightAir tempDewpointWater temp
2015-Jul-04 00:10N 31°08' E 122°45'0 0.2
2015-Jul-03 23:31N 31°08' E 122°45'0 0.1
2015-Jul-03 22:31N 31°08' E 122°45'0 0.1
2015-Jul-03 21:31N 31°08' E 122°45'0 0.1
2015-Jul-03 20:31N 31°08' E 122°45'0 0.1
2015-Jul-03 19:31N 31°08' E 122°45'0 0.0
2015-Jul-03 18:22N 31°08' E 122°45'2 0.4
2015-Jul-03 14:23N 31°07' E 122°46'1415.6
2015-Jul-03 13:28N 31°07' E 123°03'1716.0
2015-Jul-03 12:26N 31°07' E 123°22'1414.2
2015-Jul-03 11:27N 31°06' E 123°39'1213.5
2015-Jul-03 10:32N 31°06' E 123°53'  
2015-Jun-30 15:31N 34°30' E 138°17'6014.5
2015-Jun-30 11:23N 34°40' E 139°29'2015.2
2015-Jun-30 10:04N 34°58' E 139°39'816.3
2015-Jun-30 09:33N 35°05' E 139°43'1312.8
2015-Jun-30 08:33N 35°18' E 139°44'9 9.1
2015-Jun-30 07:33N 35°27' E 139°40'0 0.0
2015-Jun-30 06:31N 35°27' E 139°40'0 0.0
2015-Jun-30 05:31N 35°27' E 139°40'0 0.0
2015-Jun-30 04:31N 35°27' E 139°40'0 0.0
2015-Jun-30 03:31N 35°27' E 139°40'0 0.0
2015-Jun-30 02:32N 35°27' E 139°40'0 0.0
2015-Jun-30 01:31N 35°27' E 139°40'0 0.0
2015-Jun-30 00:31N 35°27' E 139°40'0 0.0
2015-Jun-29 23:31N 35°27' E 139°40'0 0.0
2015-Jun-29 22:31N 35°27' E 139°40'1 0.6
2015-Jun-29 21:33N 35°27' E 139°41'9 9.3
2015-Jun-29 20:34N 35°32' E 139°51'7 6.5
2015-Jun-29 19:32N 35°37' E 139°46'0 0.0
2015-Jun-29 18:32N 35°37' E 139°46'0 0.0
2015-Jun-29 17:32N 35°37' E 139°46'0 0.0
2015-Jun-29 16:32N 35°37' E 139°46'0 0.0
2015-Jun-29 15:32N 35°37' E 139°46'0 0.0
2015-Jun-29 14:32N 35°37' E 139°46'0 0.0
2015-Jun-29 13:32N 35°37' E 139°46'0 0.0
2015-Jun-29 12:23N 35°37' E 139°46'0 0.0
2015-Jun-29 11:29N 35°37' E 139°46'0 0.0
2015-Jun-29 10:29N 35°37' E 139°46'0 0.0
2015-Jun-29 09:17N 35°37' E 139°46'0 0.0
2015-Jun-29 08:29N 35°37' E 139°46'0 0.0
2015-Jun-29 07:32N 35°37' E 139°46'0 0.0
2015-Jun-29 06:32N 35°37' E 139°46'0 0.0
2015-Jun-29 05:29N 35°37' E 139°46'0 0.0
2015-Jun-29 04:26N 35°37' E 139°46'0 0.0
2015-Jun-29 03:32N 35°37' E 139°46'0 0.0
2015-Jun-29 02:32N 35°37' E 139°46'0 0.0
2015-Jun-29 01:32N 35°37' E 139°46'0 0.0
2015-Jun-29 00:32N 35°37' E 139°46'0 0.0
2015-Jun-28 23:32N 35°37' E 139°46'0 0.1
2015-Jun-28 22:29N 35°37' E 139°46'7 7.8
2015-Jun-28 21:34N 35°31' E 139°52'1413.7
2015-Jun-28 20:33N 35°19' E 139°44'1010.2
2015-Jun-28 19:33N 35°09' E 139°46'9 9.3
2015-Jun-28 18:33N 35°00' E 139°43'1111.1
2015-Jun-28 17:33N 34°50' E 139°46'10 9.5
2015-Jun-28 16:32N 34°48' E 139°58'1010.2
2015-Jun-28 15:32N 34°54' E 140°08'1817.9
2015-Jun-28 14:33N 35°05' E 140°25'2120.2
2015-Jun-28 13:32N 35°21' E 140°41'1920.0
2015-Jun-28 12:33N 35°37' E 140°55'  
Track history (hours):
 
Tides and Currents Weather Stations Pressure Air Temp Water Temp Dewpoint Dewpoint Depression Visibility Wind Speed Wind Dir Waves Ship Positions

Bay Bridge

Last reported at 2015-Jul-04 00:10 UTC. Time now 2015-Jul-06 00:59 UTC.
Position N 31°08' E 122°45'.

Length 267 m; draft 9.5 m.

Type: Ship (hazmat cat A). MMSI: 354120000.

Date/timePositionNaut miles runAvg speedWind from/ knotsBaromVisibWave heightAir tempDewpointWater temp
2015-Jul-04 00:10N 31°08' E 122°45'0 0.2
2015-Jul-03 23:31N 31°08' E 122°45'0 0.1
2015-Jul-03 22:31N 31°08' E 122°45'0 0.1
2015-Jul-03 21:31N 31°08' E 122°45'0 0.1
2015-Jul-03 20:31N 31°08' E 122°45'0 0.1
2015-Jul-03 19:31N 31°08' E 122°45'0 0.0
2015-Jul-03 18:22N 31°08' E 122°45'2 0.4
2015-Jul-03 14:23N 31°07' E 122°46'1415.6
2015-Jul-03 13:28N 31°07' E 123°03'1716.0
2015-Jul-03 12:26N 31°07' E 123°22'1414.2
2015-Jul-03 11:27N 31°06' E 123°39'1213.5
2015-Jul-03 10:32N 31°06' E 123°53'  
2015-Jun-30 15:31N 34°30' E 138°17'6014.5
2015-Jun-30 11:23N 34°40' E 139°29'2015.2
2015-Jun-30 10:04N 34°58' E 139°39'816.3
2015-Jun-30 09:33N 35°05' E 139°43'1312.8
2015-Jun-30 08:33N 35°18' E 139°44'9 9.1
2015-Jun-30 07:33N 35°27' E 139°40'0 0.0
2015-Jun-30 06:31N 35°27' E 139°40'0 0.0
2015-Jun-30 05:31N 35°27' E 139°40'0 0.0
2015-Jun-30 04:31N 35°27' E 139°40'0 0.0
2015-Jun-30 03:31N 35°27' E 139°40'0 0.0
2015-Jun-30 02:32N 35°27' E 139°40'0 0.0
2015-Jun-30 01:31N 35°27' E 139°40'0 0.0
2015-Jun-30 00:31N 35°27' E 139°40'0 0.0
2015-Jun-29 23:31N 35°27' E 139°40'0 0.0
2015-Jun-29 22:31N 35°27' E 139°40'1 0.6
2015-Jun-29 21:33N 35°27' E 139°41'9 9.3
2015-Jun-29 20:34N 35°32' E 139°51'7 6.5
2015-Jun-29 19:32N 35°37' E 139°46'0 0.0
2015-Jun-29 18:32N 35°37' E 139°46'0 0.0
2015-Jun-29 17:32N 35°37' E 139°46'0 0.0
2015-Jun-29 16:32N 35°37' E 139°46'0 0.0
2015-Jun-29 15:32N 35°37' E 139°46'0 0.0
2015-Jun-29 14:32N 35°37' E 139°46'0 0.0
2015-Jun-29 13:32N 35°37' E 139°46'0 0.0
2015-Jun-29 12:23N 35°37' E 139°46'0 0.0
2015-Jun-29 11:29N 35°37' E 139°46'0 0.0
2015-Jun-29 10:29N 35°37' E 139°46'0 0.0
2015-Jun-29 09:17N 35°37' E 139°46'0 0.0
2015-Jun-29 08:29N 35°37' E 139°46'0 0.0
2015-Jun-29 07:32N 35°37' E 139°46'0 0.0
2015-Jun-29 06:32N 35°37' E 139°46'0 0.0
2015-Jun-29 05:29N 35°37' E 139°46'0 0.0
2015-Jun-29 04:26N 35°37' E 139°46'0 0.0
2015-Jun-29 03:32N 35°37' E 139°46'0 0.0
2015-Jun-29 02:32N 35°37' E 139°46'0 0.0
2015-Jun-29 01:32N 35°37' E 139°46'0 0.0
2015-Jun-29 00:32N 35°37' E 139°46'0 0.0
2015-Jun-28 23:32N 35°37' E 139°46'0 0.1
2015-Jun-28 22:29N 35°37' E 139°46'7 7.8
2015-Jun-28 21:34N 35°31' E 139°52'1413.7
2015-Jun-28 20:33N 35°19' E 139°44'1010.2
2015-Jun-28 19:33N 35°09' E 139°46'9 9.3
2015-Jun-28 18:33N 35°00' E 139°43'1111.1
2015-Jun-28 17:33N 34°50' E 139°46'10 9.5
2015-Jun-28 16:32N 34°48' E 139°58'1010.2
2015-Jun-28 15:32N 34°54' E 140°08'1817.9
2015-Jun-28 14:33N 35°05' E 140°25'2120.2
2015-Jun-28 13:32N 35°21' E 140°41'1920.0
2015-Jun-28 12:33N 35°37' E 140°55'  

Dump ship's entire track history